Time;durP1;ratioP1;P1;durP2;ratioP2;P2;SDS_P1;SDS_P2;PMS_P1;PMS_P2;Temp;Humidity;BMP_temperature;BMP_pressure;BME280_temperature;BME280_humidity;BME280_pressure;Samples;Min_cycle;Max_cycle;Signal;HPM_P1;HPM_P2
2022/10/16 00:01:07;;;;;;;;;;;22.80;59.70;;;;;;1519874;76;787;-56
2022/10/16 00:03:09;;;;;;;;;;;22.70;59.80;;;;;;1519255;76;701;-56
2022/10/16 00:05:11;;;;;;;;;;;22.80;59.80;;;;;;1539532;75;1164;-56
2022/10/16 00:07:13;;;;;;;;;;;22.70;59.80;;;;;;1540965;76;1063;-55
2022/10/16 00:09:14;;;;;;;;;;;22.80;59.80;;;;;;1538805;76;1945;-55
2022/10/16 00:11:17;;;;;;;;;;;22.70;59.90;;;;;;1550911;76;1535;-53
2022/10/16 00:13:20;;;;;;;;;;;22.70;59.90;;;;;;1554295;76;747;-56
2022/10/16 00:15:22;;;;;;;;;;;22.70;59.90;;;;;;1550323;76;1126;-56
2022/10/16 00:17:24;;;;;;;;;;;22.80;59.90;;;;;;1557655;76;718;-56
2022/10/16 00:19:26;;;;;;;;;;;22.80;60.00;;;;;;1542471;76;761;-56
2022/10/16 00:21:28;;;;;;;;;;;22.70;59.90;;;;;;1544028;76;680;-55
2022/10/16 00:23:30;;;;;;;;;;;22.80;59.80;;;;;;1542305;75;951;-56
2022/10/16 00:25:32;;;;;;;;;;;22.80;59.80;;;;;;1542156;76;1546;-56
2022/10/16 00:27:34;;;;;;;;;;;22.80;59.70;;;;;;1538126;76;774;-56
2022/10/16 00:29:36;;;;;;;;;;;22.80;59.80;;;;;;1547322;76;1943;-56
2022/10/16 00:31:38;;;;;;;;;;;22.80;59.60;;;;;;1543593;76;836;-54
2022/10/16 00:33:40;;;;;;;;;;;22.80;59.60;;;;;;1553818;75;725;-56
2022/10/16 00:35:42;;;;;;;;;;;22.80;59.60;;;;;;1544022;75;1131;-56
2022/10/16 00:37:44;;;;;;;;;;;22.90;59.70;;;;;;1539688;76;766;-56
2022/10/16 00:39:46;;;;;;;;;;;22.80;59.60;;;;;;1532973;76;1542;-56
2022/10/16 00:41:48;;;;;;;;;;;22.80;59.50;;;;;;1515833;76;649;-54
2022/10/16 00:43:50;;;;;;;;;;;22.80;59.60;;;;;;1532625;77;733;-53
2022/10/16 00:45:52;;;;;;;;;;;22.90;59.70;;;;;;1528096;77;1142;-57
2022/10/16 00:47:54;;;;;;;;;;;22.90;59.80;;;;;;1522165;77;687;-56
2022/10/16 00:50:00;;;;;;;;;;;22.90;59.70;;;;;;1514947;77;1940;-56
2022/10/16 00:52:03;;;;;;;;;;;23.00;59.70;;;;;;1518978;77;759;-55
2022/10/16 00:54:05;;;;;;;;;;;22.90;59.80;;;;;;1589156;74;1740;-56
2022/10/16 00:56:07;;;;;;;;;;;22.80;59.70;;;;;;1584368;74;1177;-56
2022/10/16 00:58:09;;;;;;;;;;;22.90;59.70;;;;;;1587657;74;849;-53
2022/10/16 01:00:12;;;;;;;;;;;23.00;59.80;;;;;;1588756;74;619;-56
2022/10/16 01:02:14;;;;;;;;;;;22.90;59.70;;;;;;1584353;74;751;-56
2022/10/16 01:04:16;;;;;;;;;;;22.80;59.70;;;;;;1586917;74;854;-54
2022/10/16 01:06:24;;;;;;;;;;;22.90;59.80;;;;;;1586913;73;1282;-56
2022/10/16 01:08:35;;;;;;;;;;;22.90;59.80;;;;;;1590801;74;610;-56
2022/10/16 01:10:56;;;;;;;;;;;22.80;59.70;;;;;;1596506;74;1917;-56
2022/10/16 01:13:02;;;;;;;;;;;22.70;59.80;;;;;;1590715;74;775;-56
2022/10/16 01:15:11;;;;;;;;;;;22.70;59.80;;;;;;1589657;74;1080;-53
2022/10/16 01:17:15;;;;;;;;;;;22.70;59.80;;;;;;1591541;74;801;-56
2022/10/16 01:19:18;;;;;;;;;;;22.70;59.80;;;;;;1583345;74;732;-56
2022/10/16 01:21:22;;;;;;;;;;;22.80;59.90;;;;;;1575956;74;1576;-53
2022/10/16 01:23:28;;;;;;;;;;;22.70;60.00;;;;;;1587155;74;822;-56
2022/10/16 01:25:48;;;;;;;;;;;22.70;60.00;;;;;;1591768;73;1140;-56
2022/10/16 01:27:50;;;;;;;;;;;22.70;60.10;;;;;;1579125;74;703;-54
2022/10/16 01:29:54;;;;;;;;;;;22.70;60.10;;;;;;1592465;74;1946;-55
2022/10/16 01:31:57;;;;;;;;;;;22.80;60.10;;;;;;1579716;74;821;-55
2022/10/16 01:34:10;;;;;;;;;;;22.70;60.10;;;;;;1580021;74;673;-56
2022/10/16 01:36:16;;;;;;;;;;;22.70;60.00;;;;;;1581188;74;1766;-54
2022/10/16 01:38:20;;;;;;;;;;;22.80;60.00;;;;;;1591386;74;712;-55
2022/10/16 01:40:22;;;;;;;;;;;22.80;59.90;;;;;;1593276;74;794;-55
2022/10/16 01:42:24;;;;;;;;;;;22.70;60.00;;;;;;1575685;74;736;-55
2022/10/16 01:44:27;;;;;;;;;;;22.80;60.00;;;;;;1582705;74;724;-54
2022/10/16 01:46:29;;;;;;;;;;;22.80;60.00;;;;;;1593727;74;1158;-55
2022/10/16 01:48:30;;;;;;;;;;;22.70;60.10;;;;;;1597354;74;732;-51
2022/10/16 01:50:33;;;;;;;;;;;22.60;60.10;;;;;;1595421;74;1946;-55
2022/10/16 01:52:36;;;;;;;;;;;22.60;60.10;;;;;;1582249;74;728;-56
2022/10/16 01:54:38;;;;;;;;;;;22.70;60.10;;;;;;1585255;74;706;-54
2022/10/16 01:56:40;;;;;;;;;;;22.60;60.10;;;;;;1595490;73;1120;-56
2022/10/16 01:58:43;;;;;;;;;;;22.70;60.20;;;;;;1588001;74;824;-56
2022/10/16 02:00:45;;;;;;;;;;;22.60;60.10;;;;;;1591734;74;684;-56
2022/10/16 02:02:48;;;;;;;;;;;22.70;60.20;;;;;;1590725;74;1589;-54
2022/10/16 02:04:52;;;;;;;;;;;22.70;60.30;;;;;;1581442;74;700;-50
2022/10/16 02:06:54;;;;;;;;;;;22.70;60.20;;;;;;1583553;74;2038;-52
2022/10/16 02:08:56;;;;;;;;;;;22.70;60.20;;;;;;1591418;74;741;-56
2022/10/16 02:10:58;;;;;;;;;;;22.70;60.20;;;;;;1584469;74;1942;-56
2022/10/16 02:13:04;;;;;;;;;;;22.70;60.10;;;;;;1590562;74;765;-57
2022/10/16 02:15:06;;;;;;;;;;;22.80;60.10;;;;;;1580880;73;1736;-56
2022/10/16 02:17:12;;;;;;;;;;;22.70;60.10;;;;;;1592232;74;1570;-57
2022/10/16 02:19:14;;;;;;;;;;;22.70;60.00;;;;;;1579980;74;568;-56
2022/10/16 02:21:17;;;;;;;;;;;22.70;60.10;;;;;;1594809;74;683;-57
2022/10/16 02:23:21;;;;;;;;;;;22.60;60.00;;;;;;1598774;74;763;-57
2022/10/16 02:25:25;;;;;;;;;;;22.60;60.00;;;;;;1524691;74;1118;-56
2022/10/16 02:27:31;;;;;;;;;;;22.60;60.00;;;;;;1591762;74;748;-56
2022/10/16 02:29:33;;;;;;;;;;;22.60;60.00;;;;;;1561324;74;1943;-56
2022/10/16 02:31:36;;;;;;;;;;;22.60;60.00;;;;;;1581633;74;1521;-56
2022/10/16 02:33:38;;;;;;;;;;;22.60;60.10;;;;;;1584466;74;594;-56
2022/10/16 02:35:40;;;;;;;;;;;22.70;60.10;;;;;;1579480;74;1143;-56
2022/10/16 02:37:42;;;;;;;;;;;22.60;60.10;;;;;;1581501;74;765;-56
2022/10/16 02:39:43;;;;;;;;;;;22.70;60.10;;;;;;1583806;74;742;-56
2022/10/16 02:41:45;;;;;;;;;;;22.70;60.20;;;;;;1588592;74;837;-55
2022/10/16 02:43:47;;;;;;;;;;;22.70;60.20;;;;;;1590173;74;693;-56
2022/10/16 02:45:49;;;;;;;;;;;22.70;60.20;;;;;;1582293;74;1603;-56
2022/10/16 02:47:51;;;;;;;;;;;22.70;60.20;;;;;;1580413;74;788;-56
2022/10/16 02:49:53;;;;;;;;;;;22.80;60.20;;;;;;1591902;74;1935;-56
2022/10/16 02:51:55;;;;;;;;;;;22.80;60.20;;;;;;1595642;74;763;-56
2022/10/16 02:53:57;;;;;;;;;;;22.70;60.10;;;;;;1582134;74;761;-56
2022/10/16 02:55:58;;;;;;;;;;;22.80;60.20;;;;;;1571326;74;1258;-56
2022/10/16 02:58:00;;;;;;;;;;;22.70;60.10;;;;;;1595876;74;767;-56
2022/10/16 03:00:03;;;;;;;;;;;22.70;60.10;;;;;;1595385;74;1515;-56
2022/10/16 03:02:05;;;;;;;;;;;22.70;60.20;;;;;;1583439;74;725;-56
2022/10/16 03:04:06;;;;;;;;;;;22.70;60.20;;;;;;1590096;74;705;-56
2022/10/16 03:06:08;;;;;;;;;;;22.70;60.20;;;;;;1580247;73;1153;-56
2022/10/16 03:08:10;;;;;;;;;;;22.70;60.20;;;;;;1592047;74;775;-57
2022/10/16 03:10:12;;;;;;;;;;;22.80;60.20;;;;;;1578501;74;1961;-57
2022/10/16 03:12:14;;;;;;;;;;;22.70;60.30;;;;;;1585974;74;761;-56
2022/10/16 03:14:16;;;;;;;;;;;22.70;60.20;;;;;;1592640;74;1545;-58
2022/10/16 03:16:18;;;;;;;;;;;22.70;60.30;;;;;;1576288;74;1140;-54
2022/10/16 03:18:20;;;;;;;;;;;22.70;60.40;;;;;;1594898;74;757;-54
2022/10/16 03:20:21;;;;;;;;;;;22.70;60.40;;;;;;1584666;74;720;-56
2022/10/16 03:22:23;;;;;;;;;;;22.70;60.30;;;;;;1584665;74;648;-56
2022/10/16 03:24:25;;;;;;;;;;;22.70;60.30;;;;;;1576992;74;688;-56
2022/10/16 03:26:27;;;;;;;;;;;22.70;60.40;;;;;;1578419;74;1061;-56
2022/10/16 03:28:29;;;;;;;;;;;22.70;60.30;;;;;;1589230;74;1634;-55
2022/10/16 03:30:31;;;;;;;;;;;22.80;60.20;;;;;;1587210;74;1940;-55
2022/10/16 03:32:33;;;;;;;;;;;22.80;60.20;;;;;;1591467;74;712;-52
2022/10/16 03:34:35;;;;;;;;;;;22.70;60.20;;;;;;1597350;74;763;-56
2022/10/16 03:36:36;;;;;;;;;;;22.70;60.20;;;;;;1595005;74;1119;-56
2022/10/16 03:38:38;;;;;;;;;;;22.70;60.20;;;;;;1592449;74;798;-56
2022/10/16 03:40:40;;;;;;;;;;;22.70;60.10;;;;;;1594328;74;695;-56
2022/10/16 03:42:45;;;;;;;;;;;22.70;60.20;;;;;;1590993;74;1589;-55
2022/10/16 03:44:47;;;;;;;;;;;22.80;60.20;;;;;;1596042;74;697;-56
2022/10/16 03:46:49;;;;;;;;;;;22.70;60.20;;;;;;1588752;74;1137;-55
2022/10/16 03:48:50;;;;;;;;;;;22.70;60.20;;;;;;1589448;74;698;-52
2022/10/16 03:50:52;;;;;;;;;;;22.70;60.20;;;;;;1595124;74;1920;-54
2022/10/16 03:52:54;;;;;;;;;;;22.70;60.30;;;;;;1580880;74;716;-53
2022/10/16 03:54:57;;;;;;;;;;;22.70;60.20;;;;;;1586615;74;1187;-53
2022/10/16 03:56:58;;;;;;;;;;;22.70;60.40;;;;;;1580883;74;1663;-52
2022/10/16 03:59:00;;;;;;;;;;;22.70;60.70;;;;;;1583221;74;720;-56
2022/10/16 04:01:02;;;;;;;;;;;22.80;60.30;;;;;;1584329;74;720;-55
2022/10/16 04:03:04;;;;;;;;;;;23.00;59.90;;;;;;1583137;74;793;-54
2022/10/16 04:05:06;;;;;;;;;;;23.10;59.80;;;;;;1577970;74;1164;-55
2022/10/16 04:07:08;;;;;;;;;;;23.00;59.80;;;;;;1585773;74;873;-55
2022/10/16 04:09:10;;;;;;;;;;;23.00;59.60;;;;;;1584251;74;1523;-55
2022/10/16 04:11:12;;;;;;;;;;;23.00;59.50;;;;;;1583354;74;1947;-53
2022/10/16 04:13:15;;;;;;;;;;;23.00;59.50;;;;;;1576016;74;715;-56
2022/10/16 04:15:17;;;;;;;;;;;23.00;59.50;;;;;;1580890;74;1156;-55
2022/10/16 04:17:19;;;;;;;;;;;22.90;59.60;;;;;;1586363;74;740;-55
2022/10/16 04:19:21;;;;;;;;;;;23.00;59.60;;;;;;1581673;74;860;-54
2022/10/16 04:21:23;;;;;;;;;;;22.90;59.70;;;;;;1587309;74;833;-53
2022/10/16 04:23:25;;;;;;;;;;;22.90;59.70;;;;;;1572460;74;1589;-55
2022/10/16 04:25:26;;;;;;;;;;;23.00;59.70;;;;;;1583214;74;1154;-56
2022/10/16 04:27:31;;;;;;;;;;;22.90;59.80;;;;;;1581247;74;743;-56
2022/10/16 04:29:32;;;;;;;;;;;22.90;59.80;;;;;;1584990;74;1657;-55
2022/10/16 04:31:34;;;;;;;;;;;22.90;59.80;;;;;;1584340;74;1939;-53
2022/10/16 04:33:36;;;;;;;;;;;22.90;59.70;;;;;;1584571;74;730;-53
2022/10/16 04:35:37;;;;;;;;;;;22.90;59.80;;;;;;1572115;74;1137;-56
2022/10/16 04:37:39;;;;;;;;;;;22.80;59.70;;;;;;1585344;74;1502;-57
2022/10/16 04:39:41;;;;;;;;;;;22.90;60.00;;;;;;1576958;74;729;-57
2022/10/16 04:41:43;;;;;;;;;;;23.00;59.80;;;;;;1585104;74;767;-57
2022/10/16 04:43:45;;;;;;;;;;;23.00;59.50;;;;;;1581099;74;749;-56
2022/10/16 04:45:47;;;;;;;;;;;23.00;59.30;;;;;;1584398;74;1149;-54
2022/10/16 04:47:49;;;;;;;;;;;23.00;59.30;;;;;;1583970;74;807;-52
2022/10/16 04:49:51;;;;;;;;;;;23.00;59.20;;;;;;1586055;74;760;-52
2022/10/16 04:51:52;;;;;;;;;;;23.00;59.20;;;;;;1583381;74;1953;-57
2022/10/16 04:53:55;;;;;;;;;;;23.00;59.20;;;;;;1584643;74;776;-56
2022/10/16 04:55:57;;;;;;;;;;;22.90;59.30;;;;;;1586839;74;1183;-56
2022/10/16 04:57:59;;;;;;;;;;;22.90;59.30;;;;;;1588277;74;798;-56
2022/10/16 05:00:00;;;;;;;;;;;22.90;59.50;;;;;;1569334;74;830;-56
2022/10/16 05:02:02;;;;;;;;;;;22.90;59.60;;;;;;1578903;74;703;-55
2022/10/16 05:04:04;;;;;;;;;;;22.90;59.60;;;;;;1571265;74;726;-55
2022/10/16 05:06:07;;;;;;;;;;;22.90;59.60;;;;;;1578835;74;1544;-54
2022/10/16 05:08:09;;;;;;;;;;;22.90;59.60;;;;;;1584707;74;810;-55
2022/10/16 05:10:10;;;;;;;;;;;22.90;59.50;;;;;;1582674;74;682;-53
2022/10/16 05:12:12;;;;;;;;;;;23.00;59.50;;;;;;1580268;74;806;-56
2022/10/16 05:14:14;;;;;;;;;;;23.00;59.50;;;;;;1574503;74;679;-56
2022/10/16 05:16:16;;;;;;;;;;;23.00;59.40;;;;;;1571687;74;1146;-56
2022/10/16 05:18:18;;;;;;;;;;;23.00;59.20;;;;;;1579844;74;874;-56
2022/10/16 05:20:20;;;;;;;;;;;23.10;59.20;;;;;;1570025;74;1593;-56
2022/10/16 05:22:22;;;;;;;;;;;23.10;59.20;;;;;;1583082;74;632;-54
2022/10/16 05:24:23;;;;;;;;;;;23.10;59.30;;;;;;1584587;74;764;-54
2022/10/16 05:26:25;;;;;;;;;;;23.10;59.30;;;;;;1580842;73;1129;-57
2022/10/16 05:28:28;;;;;;;;;;;23.10;59.30;;;;;;1583483;74;707;-57
2022/10/16 05:30:29;;;;;;;;;;;23.10;59.40;;;;;;1582327;74;1931;-58
2022/10/16 05:32:31;;;;;;;;;;;23.10;59.80;;;;;;1582555;74;782;-58
2022/10/16 05:34:33;;;;;;;;;;;23.00;59.80;;;;;;1574288;74;1560;-57
2022/10/16 05:36:35;;;;;;;;;;;23.00;59.70;;;;;;1585317;74;1098;-58
2022/10/16 05:38:37;;;;;;;;;;;23.10;59.60;;;;;;1581801;74;675;-58
2022/10/16 05:40:39;;;;;;;;;;;23.10;59.30;;;;;;1580614;74;730;-58
2022/10/16 05:42:41;;;;;;;;;;;23.10;59.20;;;;;;1579436;74;750;-58
2022/10/16 05:44:43;;;;;;;;;;;23.10;59.00;;;;;;1583477;74;771;-57
2022/10/16 05:46:46;;;;;;;;;;;23.10;59.20;;;;;;1585148;74;1116;-58
2022/10/16 05:48:48;;;;;;;;;;;23.00;59.10;;;;;;1582435;74;1548;-58
2022/10/16 05:50:51;;;;;;;;;;;22.90;59.20;;;;;;1574467;73;1950;-58
2022/10/16 05:52:53;;;;;;;;;;;22.90;59.30;;;;;;1578435;73;1839;-57
2022/10/16 05:54:55;;;;;;;;;;;22.80;59.30;;;;;;1580264;73;1156;-58
2022/10/16 05:56:57;;;;;;;;;;;22.80;59.30;;;;;;1584117;73;711;-56
2022/10/16 05:58:59;;;;;;;;;;;22.90;59.50;;;;;;1585569;74;804;-58
2022/10/16 06:01:02;;;;;;;;;;;22.70;59.40;;;;;;1587892;74;655;-58
2022/10/16 06:03:06;;;;;;;;;;;22.80;59.40;;;;;;1579848;74;1602;-58
2022/10/16 06:05:07;;;;;;;;;;;22.70;59.50;;;;;;1582532;74;1687;-57
2022/10/16 06:07:09;;;;;;;;;;;22.80;59.50;;;;;;1583938;74;806;-57
2022/10/16 06:09:11;;;;;;;;;;;22.70;59.50;;;;;;1575358;74;773;-58
2022/10/16 06:11:17;;;;;;;;;;;22.70;59.50;;;;;;1577980;74;1912;-58
2022/10/16 06:13:19;;;;;;;;;;;22.70;59.50;;;;;;1582341;74;783;-57
2022/10/16 06:15:20;;;;;;;;;;;22.70;59.50;;;;;;1542216;75;1150;-57
2022/10/16 06:17:22;;;;;;;;;;;22.70;59.50;;;;;;1506713;78;1477;-56
2022/10/16 06:19:24;;;;;;;;;;;22.70;59.40;;;;;;1520191;77;689;-57
2022/10/16 06:21:26;;;;;;;;;;;22.70;59.50;;;;;;1519822;77;705;-58
2022/10/16 06:23:28;;;;;;;;;;;22.70;59.40;;;;;;1511027;77;745;-58
2022/10/16 06:25:31;;;;;;;;;;;22.70;59.40;;;;;;1518914;77;1139;-57
2022/10/16 06:27:33;;;;;;;;;;;22.70;59.40;;;;;;1578172;74;786;-58
2022/10/16 06:29:34;;;;;;;;;;;22.70;59.40;;;;;;1581193;74;755;-57
2022/10/16 06:31:36;;;;;;;;;;;22.70;59.30;;;;;;1585332;74;1937;-58
2022/10/16 06:33:39;;;;;;;;;;;22.70;59.30;;;;;;1587389;74;878;-57
2022/10/16 06:35:40;;;;;;;;;;;22.60;59.20;;;;;;1584701;73;1128;-58
2022/10/16 06:37:42;;;;;;;;;;;22.70;59.30;;;;;;1583217;74;713;-58
2022/10/16 06:39:44;;;;;;;;;;;22.60;59.20;;;;;;1581128;74;718;-57
2022/10/16 06:41:46;;;;;;;;;;;22.70;59.30;;;;;;1579855;74;791;-58
2022/10/16 06:43:48;;;;;;;;;;;22.70;59.30;;;;;;1580886;74;809;-57
2022/10/16 06:45:53;;;;;;;;;;;22.70;59.30;;;;;;1584040;73;1604;-58
2022/10/16 06:47:55;;;;;;;;;;;22.60;59.30;;;;;;1580763;74;762;-57
2022/10/16 06:49:57;;;;;;;;;;;22.70;59.30;;;;;;1577722;74;748;-58
2022/10/16 06:51:59;;;;;;;;;;;22.60;59.20;;;;;;1578920;73;1954;-58
2022/10/16 06:54:01;;;;;;;;;;;22.60;59.20;;;;;;1579112;74;705;-57
2022/10/16 06:56:09;;;;;;;;;;;22.60;59.20;;;;;;1579653;74;1099;-57
2022/10/16 06:58:11;;;;;;;;;;;22.70;59.20;;;;;;1568016;74;1525;-57
2022/10/16 07:00:13;;;;;;;;;;;22.70;59.20;;;;;;1576281;74;706;-56
2022/10/16 07:02:15;;;;;;;;;;;22.60;59.10;;;;;;1574787;74;741;-56
2022/10/16 07:04:16;;;;;;;;;;;22.70;59.20;;;;;;1584457;74;795;-55
2022/10/16 07:06:20;;;;;;;;;;;22.60;59.10;;;;;;1584789;74;1179;-56
2022/10/16 07:08:21;;;;;;;;;;;22.60;59.10;;;;;;1584391;74;722;-57
2022/10/16 07:10:26;;;;;;;;;;;22.60;59.00;;;;;;1578940;74;813;-56
2022/10/16 07:12:28;;;;;;;;;;;22.60;59.00;;;;;;1579920;74;1934;-57
2022/10/16 07:14:30;;;;;;;;;;;22.70;59.10;;;;;;1581119;74;788;-57
2022/10/16 07:16:32;;;;;;;;;;;22.60;59.00;;;;;;1566441;74;1138;-57
2022/10/16 07:18:34;;;;;;;;;;;22.70;59.20;;;;;;1582347;74;685;-57
2022/10/16 07:20:37;;;;;;;;;;;22.70;59.10;;;;;;1584674;74;757;-57
2022/10/16 07:22:39;;;;;;;;;;;22.60;59.00;;;;;;1573499;74;770;-57
2022/10/16 07:24:41;;;;;;;;;;;22.60;59.00;;;;;;1580252;74;743;-57
2022/10/16 07:26:43;;;;;;;;;;;22.60;59.00;;;;;;1586906;74;1618;-57
2022/10/16 07:28:45;;;;;;;;;;;22.70;58.70;;;;;;1585171;74;869;-58
2022/10/16 07:30:47;;;;;;;;;;;22.70;58.70;;;;;;1582173;74;651;-57
2022/10/16 07:32:49;;;;;;;;;;;22.70;58.70;;;;;;1584635;74;1941;-57
2022/10/16 07:34:51;;;;;;;;;;;22.70;58.70;;;;;;1579954;74;794;-58
2022/10/16 07:36:53;;;;;;;;;;;22.80;58.70;;;;;;1579646;74;1147;-58
2022/10/16 07:38:55;;;;;;;;;;;22.70;58.70;;;;;;1581462;74;797;-58
2022/10/16 07:41:00;;;;;;;;;;;22.80;58.60;;;;;;1580620;74;1553;-58
2022/10/16 07:43:05;;;;;;;;;;;22.70;58.60;;;;;;1584122;74;761;-57
2022/10/16 07:45:06;;;;;;;;;;;22.80;58.60;;;;;;1576483;74;1492;-57
2022/10/16 07:47:08;;;;;;;;;;;22.70;58.50;;;;;;1580652;74;685;-57
2022/10/16 07:49:10;;;;;;;;;;;22.80;58.50;;;;;;1578996;74;799;-57
2022/10/16 07:51:12;;;;;;;;;;;22.70;58.50;;;;;;1575371;74;1904;-58
2022/10/16 07:53:14;;;;;;;;;;;22.70;58.40;;;;;;1580988;74;747;-56
2022/10/16 07:55:15;;;;;;;;;;;22.80;58.40;;;;;;1574648;74;1614;-56
2022/10/16 07:57:19;;;;;;;;;;;22.70;58.40;;;;;;1578949;74;715;-57
2022/10/16 07:59:21;;;;;;;;;;;22.70;58.40;;;;;;1578234;74;1152;-55
2022/10/16 08:01:23;;;;;;;;;;;22.70;58.40;;;;;;1584210;74;709;-57
2022/10/16 08:03:25;;;;;;;;;;;22.70;58.30;;;;;;1570129;74;754;-57
2022/10/16 08:05:30;;;;;;;;;;;22.80;58.20;;;;;;1578609;74;1207;-56
2022/10/16 08:07:33;;;;;;;;;;;22.80;58.20;;;;;;1584262;74;785;-57
2022/10/16 08:09:35;;;;;;;;;;;22.90;58.30;;;;;;1577064;74;1464;-57
2022/10/16 08:11:37;;;;;;;;;;;22.80;58.20;;;;;;1579012;74;1944;-57
2022/10/16 08:13:39;;;;;;;;;;;22.90;58.30;;;;;;1585346;74;714;-57
2022/10/16 08:15:41;;;;;;;;;;;22.90;58.20;;;;;;1573708;73;1086;-55
2022/10/16 08:17:43;;;;;;;;;;;22.90;58.20;;;;;;1569482;74;804;-57
2022/10/16 08:19:48;;;;;;;;;;;22.90;58.10;;;;;;1582360;74;700;-58
2022/10/16 08:21:50;;;;;;;;;;;22.90;58.10;;;;;;1583724;74;724;-57
2022/10/16 08:23:53;;;;;;;;;;;22.90;58.10;;;;;;1583951;74;1551;-58
2022/10/16 08:25:55;;;;;;;;;;;22.90;58.00;;;;;;1575661;74;1157;-57
2022/10/16 08:27:57;;;;;;;;;;;22.90;58.00;;;;;;1585173;74;811;-58
2022/10/16 08:29:58;;;;;;;;;;;23.00;57.90;;;;;;1578455;74;907;-57
2022/10/16 08:32:00;;;;;;;;;;;23.00;57.80;;;;;;1583702;74;1931;-57
2022/10/16 08:34:02;;;;;;;;;;;22.90;57.90;;;;;;1574440;73;722;-55
2022/10/16 08:36:05;;;;;;;;;;;22.90;57.80;;;;;;1583904;74;1139;-54
2022/10/16 08:38:07;;;;;;;;;;;23.00;57.80;;;;;;1585033;74;1601;-54
2022/10/16 08:40:10;;;;;;;;;;;23.00;57.70;;;;;;1570482;74;744;-56
2022/10/16 08:42:30;;;;;;;;;;;23.00;57.60;;;;;;1578234;74;1767;-56
2022/10/16 08:44:40;;;;;;;;;;;23.10;57.70;;;;;;1578823;74;708;-57
2022/10/16 08:46:43;;;;;;;;;;;23.10;57.70;;;;;;1585217;74;1127;-57
2022/10/16 08:48:46;;;;;;;;;;;23.10;57.80;;;;;;1586208;74;611;-54
2022/10/16 08:50:48;;;;;;;;;;;23.10;57.70;;;;;;1586039;74;1510;-55
2022/10/16 08:52:50;;;;;;;;;;;23.10;57.70;;;;;;1574681;74;1941;-55
2022/10/16 08:54:52;;;;;;;;;;;23.10;57.70;;;;;;1567745;74;646;-54
2022/10/16 08:56:57;;;;;;;;;;;23.10;57.60;;;;;;1576740;74;688;-53
2022/10/16 08:58:59;;;;;;;;;;;23.10;57.60;;;;;;1570324;74;800;-57
2022/10/16 09:01:02;;;;;;;;;;;23.20;57.60;;;;;;1583646;74;740;-57
2022/10/16 09:03:22;;;;;;;;;;;23.10;57.60;;;;;;1577123;74;707;-59
2022/10/16 09:05:42;;;;;;;;;;;23.20;57.60;;;;;;1577933;74;1573;-57
2022/10/16 09:07:52;;;;;;;;;;;23.10;57.70;;;;;;1585176;74;683;-57
2022/10/16 09:10:01;;;;;;;;;;;23.10;57.80;;;;;;1580531;74;1891;-59
2022/10/16 09:12:07;;;;;;;;;;;23.10;57.90;;;;;;1571968;74;1946;-59
2022/10/16 09:14:11;;;;;;;;;;;23.10;58.20;;;;;;1580705;74;676;-56
2022/10/16 09:16:17;;;;;;;;;;;23.10;58.50;;;;;;1582763;74;1161;-58
2022/10/16 09:18:24;;;;;;;;;;;23.10;58.90;;;;;;1584303;74;718;-57
2022/10/16 09:20:30;;;;;;;;;;;23.00;59.40;;;;;;1582438;74;1905;-54
2022/10/16 09:22:32;;;;;;;;;;;23.00;59.80;;;;;;1579275;74;722;-55
2022/10/16 09:24:34;;;;;;;;;;;23.00;59.90;;;;;;1580937;74;676;-53
2022/10/16 09:26:36;;;;;;;;;;;23.10;60.30;;;;;;1584838;74;1101;-55
2022/10/16 09:28:38;;;;;;;;;;;23.10;60.40;;;;;;1582194;74;779;-54
2022/10/16 09:30:40;;;;;;;;;;;23.10;60.30;;;;;;1584494;74;754;-57
2022/10/16 09:32:42;;;;;;;;;;;23.20;60.20;;;;;;1581393;74;1923;-53
2022/10/16 09:34:45;;;;;;;;;;;23.20;60.10;;;;;;1573654;74;642;-56
2022/10/16 09:36:47;;;;;;;;;;;23.10;60.60;;;;;;1579286;74;1779;-52
2022/10/16 09:38:49;;;;;;;;;;;23.00;61.10;;;;;;1586166;74;664;-56
2022/10/16 09:40:51;;;;;;;;;;;23.10;61.10;;;;;;1584309;74;834;-55
2022/10/16 09:42:55;;;;;;;;;;;23.20;60.50;;;;;;1577796;74;742;-54
2022/10/16 09:44:57;;;;;;;;;;;23.30;60.20;;;;;;1577532;73;1836;-56
2022/10/16 09:47:19;;;;;;;;;;;23.30;59.90;;;;;;1584927;74;1542;-55
2022/10/16 09:49:25;;;;;;;;;;;23.30;59.70;;;;;;1579156;74;1015;-56
2022/10/16 09:51:28;;;;;;;;;;;23.30;59.60;;;;;;1580629;74;668;-56
2022/10/16 09:53:40;;;;;;;;;;;23.30;59.50;;;;;;1585145;74;1931;-57
2022/10/16 09:55:51;;;;;;;;;;;23.30;59.40;;;;;;1582879;74;1144;-56
2022/10/16 09:57:53;;;;;;;;;;;23.30;59.40;;;;;;1579519;74;693;-56
2022/10/16 09:59:56;;;;;;;;;;;23.30;59.40;;;;;;1578718;74;824;-56
2022/10/16 10:02:00;;;;;;;;;;;23.30;59.30;;;;;;1578281;74;1570;-56
2022/10/16 10:04:03;;;;;;;;;;;23.30;59.10;;;;;;1548484;76;639;-56
2022/10/16 10:06:12;;;;;;;;;;;23.30;58.90;;;;;;1584229;74;1191;-55
2022/10/16 10:08:14;;;;;;;;;;;23.30;58.90;;;;;;1550310;74;1152;-56
2022/10/16 10:10:23;;;;;;;;;;;23.30;58.90;;;;;;1575469;74;726;-56
2022/10/16 10:12:29;;;;;;;;;;;23.30;58.70;;;;;;1583986;74;1943;-56
2022/10/16 10:14:37;;;;;;;;;;;23.30;58.70;;;;;;1585782;74;775;-57
2022/10/16 10:16:39;;;;;;;;;;;23.30;58.60;;;;;;1580057;74;1206;-56
2022/10/16 10:18:41;;;;;;;;;;;23.30;58.50;;;;;;1576555;74;708;-54
2022/10/16 10:20:43;;;;;;;;;;;23.30;58.40;;;;;;1572848;74;702;-56
2022/10/16 10:22:49;;;;;;;;;;;23.30;58.40;;;;;;1586798;74;641;-53
2022/10/16 10:25:05;;;;;;;;;;;23.20;58.30;;;;;;1583275;74;1340;-56
2022/10/16 10:27:09;;;;;;;;;;;23.30;58.40;;;;;;1578416;74;805;-55
2022/10/16 10:29:12;;;;;;;;;;;23.20;58.30;;;;;;1583754;74;2043;-56
2022/10/16 10:31:34;;;;;;;;;;;23.10;58.40;;;;;;1568772;74;1814;-56
2022/10/16 10:33:38;;;;;;;;;;;23.20;58.50;;;;;;1581617;74;1951;-56
2022/10/16 10:35:45;;;;;;;;;;;23.20;58.60;;;;;;1580549;74;1167;-54
2022/10/16 10:37:51;;;;;;;;;;;23.20;58.50;;;;;;1586846;74;953;-56
2022/10/16 10:39:55;;;;;;;;;;;23.20;58.50;;;;;;1583215;74;887;-54
2022/10/16 10:42:01;;;;;;;;;;;23.10;58.50;;;;;;1578305;74;786;-55
2022/10/16 10:44:17;;;;;;;;;;;23.10;58.50;;;;;;1576930;74;1610;-56
2022/10/16 10:46:23;;;;;;;;;;;23.10;58.50;;;;;;1582337;74;1151;-54
2022/10/16 10:48:27;;;;;;;;;;;23.10;58.40;;;;;;1584122;74;1791;-55
2022/10/16 10:50:44;;;;;;;;;;;23.10;58.50;;;;;;1582463;74;692;-54
2022/10/16 10:52:47;;;;;;;;;;;23.10;58.50;;;;;;1577764;74;1937;-56
2022/10/16 10:54:54;;;;;;;;;;;23.10;58.40;;;;;;1579651;74;1780;-53
2022/10/16 10:57:00;;;;;;;;;;;23.00;58.30;;;;;;1579840;74;724;-56
2022/10/16 10:59:20;;;;;;;;;;;23.10;58.40;;;;;;1575593;74;1767;-56
2022/10/16 11:01:40;;;;;;;;;;;23.00;58.30;;;;;;1580021;74;759;-55
2022/10/16 11:04:00;;;;;;;;;;;23.00;58.30;;;;;;1580781;74;692;-56
2022/10/16 11:06:06;;;;;;;;;;;23.00;58.30;;;;;;1584623;74;1200;-54
2022/10/16 11:08:09;;;;;;;;;;;23.00;58.30;;;;;;1579210;74;756;-56
2022/10/16 11:10:25;;;;;;;;;;;23.00;58.20;;;;;;1579043;74;659;-56
2022/10/16 11:12:28;;;;;;;;;;;23.00;58.20;;;;;;1574588;74;1915;-56
2022/10/16 11:14:32;;;;;;;;;;;23.00;58.20;;;;;;1585199;74;1059;-54
2022/10/16 11:16:36;;;;;;;;;;;23.00;58.20;;;;;;1569965;74;1792;-54
2022/10/16 11:18:42;;;;;;;;;;;23.00;58.10;;;;;;1572121;74;648;-54
2022/10/16 11:20:49;;;;;;;;;;;23.00;58.10;;;;;;1586393;74;1482;-53
2022/10/16 11:22:57;;;;;;;;;;;23.00;58.10;;;;;;1562598;74;1258;-52
2022/10/16 11:25:08;;;;;;;;;;;23.00;58.10;;;;;;1578728;74;1147;-55
2022/10/16 11:27:12;;;;;;;;;;;23.00;58.10;;;;;;1582836;74;1911;-55
2022/10/16 11:29:24;;;;;;;;;;;23.00;58.10;;;;;;1577302;74;718;-58
2022/10/16 11:31:31;;;;;;;;;;;23.10;58.20;;;;;;1582527;74;1775;-57
2022/10/16 11:33:35;;;;;;;;;;;23.10;58.30;;;;;;1585916;74;1907;-53
2022/10/16 11:35:55;;;;;;;;;;;23.20;57.90;;;;;;1580120;74;1140;-57
2022/10/16 11:37:57;;;;;;;;;;;23.30;57.70;;;;;;1572103;74;696;-58
2022/10/16 11:40:17;;;;;;;;;;;23.30;57.70;;;;;;1562100;74;1507;-56
2022/10/16 11:42:21;;;;;;;;;;;23.30;57.80;;;;;;1577082;74;760;-55
2022/10/16 11:44:30;;;;;;;;;;;23.40;57.60;;;;;;1583849;74;1132;-56
2022/10/16 11:46:32;;;;;;;;;;;23.40;57.40;;;;;;1572668;74;1955;-56
2022/10/16 11:48:38;;;;;;;;;;;23.50;57.40;;;;;;1583220;74;685;-57
2022/10/16 11:50:42;;;;;;;;;;;23.50;57.30;;;;;;1574979;74;726;-58
2022/10/16 11:52:49;;;;;;;;;;;23.40;57.20;;;;;;1579599;74;1939;-56
2022/10/16 11:55:09;;;;;;;;;;;23.50;57.30;;;;;;1582385;74;1941;-52
2022/10/16 11:57:24;;;;;;;;;;;23.50;57.10;;;;;;1583988;74;706;-58
2022/10/16 11:59:34;;;;;;;;;;;23.50;57.10;;;;;;1580552;74;1813;-55
2022/10/16 12:01:40;;;;;;;;;;;23.40;57.00;;;;;;1564663;74;1867;-57
2022/10/16 12:03:47;;;;;;;;;;;23.40;56.80;;;;;;1586270;74;658;-58
2022/10/16 12:06:08;;;;;;;;;;;23.50;56.80;;;;;;1589729;74;1182;-58
2022/10/16 12:08:12;;;;;;;;;;;23.50;56.80;;;;;;1577638;74;1986;-59
2022/10/16 12:10:21;;;;;;;;;;;23.50;56.70;;;;;;1581510;74;1841;-59
2022/10/16 12:12:37;;;;;;;;;;;23.50;56.60;;;;;;1581914;74;1757;-59
2022/10/16 12:14:39;;;;;;;;;;;23.40;56.60;;;;;;1572984;74;831;-57
2022/10/16 12:16:54;;;;;;;;;;;23.50;56.60;;;;;;1566242;74;1129;-58
2022/10/16 12:19:12;;;;;;;;;;;23.50;56.60;;;;;;1587685;74;725;-57